Burlington, North Dakota
Current Conditions -  °F | °C
As of 3:54 AM on Thursday 29 Jan 2015 (Local Time) from KMOT Reporting Station
Overcast Overcast  
Wind Chill:   Ceiling: 1500
Heat Index: 23°   Visibility: 10mi
Dew Point: 17°   Wind: 20mph
Humidity: 78%   Direction: 310°NW
Pressure: 30.34"   Gusts: 28mph
Location:  48.28°N, 101.43°W
Report Text: KMOT 290954Z AUTO 31017G24KT 10SM OVC015 M05/M08 A3034 RMK AO2 PK WND 32030/0904 SLP303 T10501083
Loading
Personal Weather Stations






























Interactive Weather Map New forecast layout! Learn more

10-Day Weather Forecast

Advertisements
Track Severe Weather on mobile